Time;durP1;ratioP1;P1;durP2;ratioP2;P2;SDS_P1;SDS_P2;PMS_P1;PMS_P2;Temp;Humidity;BMP_temperature;BMP_pressure;BME280_temperature;BME280_humidity;BME280_pressure;Samples;Min_cycle;Max_cycle;Signal;HPM_P1;HPM_P2
2023/01/18 00:00:51;;;;;;;6.18;2.97;;;-0.50;99.90;;;;;;5025841;28;20423;-75
2023/01/18 00:03:17;;;;;;;6.13;2.97;;;-0.80;99.90;;;;;;5027116;28;20483;-75
2023/01/18 00:05:43;;;;;;;5.32;2.47;;;-0.50;99.90;;;;;;4991222;28;20443;-75
2023/01/18 00:08:15;;;;;;;3.55;2.70;;;-0.50;99.90;;;;;;5025984;28;20459;-75
2023/01/18 00:10:42;;;;;;;5.38;3.00;;;-1.00;99.90;;;;;;4987048;28;20445;-77
2023/01/18 00:13:08;;;;;;;6.60;2.97;;;-0.30;99.90;;;;;;4982414;28;20426;-75
2023/01/18 00:15:35;;;;;;;6.07;2.40;;;-1.10;99.90;;;;;;4978314;28;20521;-75
2023/01/18 00:18:01;;;;;;;4.68;2.70;;;-1.00;99.90;;;;;;4979200;28;20993;-75
2023/01/18 00:20:28;;;;;;;5.07;2.60;;;-1.00;99.90;;;;;;4981047;28;20438;-75
2023/01/18 00:22:54;;;;;;;4.47;2.75;;;-1.10;99.90;;;;;;4983917;28;20434;-76
2023/01/18 00:25:22;;;;;;;5.78;2.60;;;-0.60;99.90;;;;;;4979697;28;20805;-77
2023/01/18 00:27:51;;;;;;;6.57;2.70;;;-0.50;99.90;;;;;;4977844;28;21288;-76
2023/01/18 00:30:19;;;;;;;6.03;3.00;;;-0.70;99.90;;;;;;4979999;28;20430;-76
2023/01/18 00:32:46;;;;;;;4.73;2.83;;;-0.90;99.90;;;;;;4979832;28;20472;-75
2023/01/18 00:35:11;;;;;;;7.67;2.83;;;-1.00;99.90;;;;;;4981553;28;20423;-75
2023/01/18 00:37:37;;;;;;;5.97;3.17;;;-0.60;99.90;;;;;;4977740;28;20426;-75
2023/01/18 00:40:05;;;;;;;5.00;2.83;;;-0.60;99.90;;;;;;4980130;28;20445;-75
2023/01/18 00:45:15;;;;;;;5.70;2.65;;;-0.90;99.90;;;;;;4994754;28;20446;-75
2023/01/18 00:47:41;;;;;;;5.32;2.88;;;-1.00;99.90;;;;;;4978598;28;20430;-75
2023/01/18 00:50:08;;;;;;;5.25;2.55;;;-0.80;99.90;;;;;;4978552;28;20444;-76
2023/01/18 00:52:33;;;;;;;4.80;2.47;;;-0.90;99.90;;;;;;4978904;28;20479;-76
2023/01/18 00:55:03;;;;;;;5.57;3.23;;;-0.50;99.90;;;;;;4986775;28;20436;-75
2023/01/18 00:57:29;;;;;;;4.88;3.25;;;-0.50;99.90;;;;;;4980157;28;20928;-75
2023/01/18 00:59:55;;;;;;;7.03;2.90;;;-0.50;99.90;;;;;;4993476;28;20480;-76
2023/01/18 01:02:20;;;;;;;5.90;3.50;;;-0.70;99.90;;;;;;4979114;28;20500;-75
2023/01/18 01:07:30;;;;;;;5.40;2.60;;;0.00;99.90;;;;;;4983288;28;20861;-76
2023/01/18 01:09:56;;;;;;;6.10;3.67;;;-0.90;99.90;;;;;;5009360;28;20395;-77
2023/01/18 01:26:09;;;;;;;6.75;2.72;;;-0.80;99.90;;;;;;5026234;28;20446;-75
2023/01/18 01:28:44;;;;;;;7.88;3.47;;;-0.80;99.90;;;;;;5028340;28;20788;-76
2023/01/18 01:31:13;;;;;;;5.72;3.00;;;-0.70;99.90;;;;;;5028824;28;20442;-76
2023/01/18 01:33:39;;;;;;;8.45;2.95;;;0.00;99.90;;;;;;5029244;28;20833;-76
2023/01/18 01:38:37;;;;;;;4.45;2.83;;;-1.00;99.90;;;;;;4317279;28;20541;-69
2023/01/18 01:41:12;;;;;;;8.13;2.83;;;-1.10;99.90;;;;;;5002554;28;20533;-70
2023/01/18 01:43:42;;;;;;;4.32;2.85;;;-1.10;99.90;;;;;;4993182;28;20428;-70
2023/01/18 01:46:25;;;;;;;6.50;2.80;;;-1.10;99.90;;;;;;5003217;28;20429;-69
2023/01/18 01:49:01;;;;;;;5.45;2.75;;;-1.10;99.90;;;;;;5002930;28;20440;-69
2023/01/18 01:51:27;;;;;;;4.68;2.22;;;-0.70;99.90;;;;;;5034212;28;20422;-70
2023/01/18 01:53:54;;;;;;;5.03;2.45;;;-1.00;99.90;;;;;;5002862;28;20432;-70
2023/01/18 01:56:20;;;;;;;7.18;2.50;;;-0.60;99.90;;;;;;5015291;28;20475;-70
2023/01/18 01:58:52;;;;;;;6.07;2.75;;;-1.10;99.90;;;;;;5001481;28;20432;-69
2023/01/18 02:01:17;;;;;;;5.63;2.63;;;-0.70;99.90;;;;;;5033010;28;20476;-69
2023/01/18 02:03:44;;;;;;;7.82;2.75;;;0.30;99.90;;;;;;5003149;28;20765;-69
2023/01/18 02:06:38;;;;;;;4.93;1.80;;;-0.90;99.90;;;;;;5001731;28;20522;-69
2023/01/18 02:09:07;;;;;;;6.23;2.10;;;-0.60;99.90;;;;;;5001314;28;20437;-70
2023/01/18 02:11:33;;;;;;;5.20;2.10;;;-0.60;99.90;;;;;;5011736;28;20514;-70
2023/01/18 02:14:06;;;;;;;7.57;2.72;;;-0.60;99.90;;;;;;5001048;28;20451;-70
2023/01/18 02:16:40;;;;;;;3.25;1.77;;;-0.10;99.90;;;;;;4998548;28;20571;-70
2023/01/18 02:19:51;;;;;;;4.75;1.52;;;-0.10;99.90;;;;;;4994511;28;20501;-69
2023/01/18 02:22:51;;;;;;;7.18;2.08;;;-0.10;99.90;;;;;;5029701;28;20515;-69
2023/01/18 02:25:48;;;;;;;11.23;2.85;;;0.10;99.90;;;;;;5005217;28;20844;-70
2023/01/18 02:28:16;;;;;;;4.10;1.92;;;0.00;99.90;;;;;;5000421;28;20444;-69
2023/01/18 02:31:14;;;;;;;6.13;1.73;;;0.10;99.90;;;;;;5003210;28;20432;-69
2023/01/18 02:33:48;;;;;;;6.15;1.88;;;0.00;99.90;;;;;;4981352;28;20496;-70
2023/01/18 02:36:45;;;;;;;4.40;1.92;;;0.20;99.90;;;;;;5016104;28;20518;-70
2023/01/18 02:39:43;;;;;;;5.68;2.10;;;0.10;99.90;;;;;;5001594;28;20521;-70
2023/01/18 02:47:59;;;;;;;4.43;2.08;;;-0.10;99.90;;;;;;4987717;28;20443;-70
2023/01/18 02:50:26;;;;;;;7.07;2.50;;;-0.20;99.90;;;;;;5008773;28;20420;-69
2023/01/18 02:52:52;;;;;;;5.10;1.70;;;0.00;99.90;;;;;;4999914;28;20449;-70
2023/01/18 02:55:35;;;;;;;12.98;2.78;;;0.10;99.90;;;;;;5032508;28;20420;-70
2023/01/18 02:58:16;;;;;;;7.38;2.78;;;-0.20;99.90;;;;;;5000289;28;20782;-70
2023/01/18 03:00:46;;;;;;;4.40;1.50;;;-0.10;99.90;;;;;;5001312;28;20425;-69
2023/01/18 03:03:13;;;;;;;8.27;2.42;;;-0.40;99.90;;;;;;5000819;28;20436;-70
2023/01/18 03:05:41;;;;;;;3.30;1.92;;;-0.10;99.90;;;;;;5000809;28;20501;-70
2023/01/18 03:08:21;;;;;;;4.53;1.80;;;-0.40;99.90;;;;;;4988828;28;20488;-70
2023/01/18 03:11:00;;;;;;;4.38;1.52;;;-0.40;99.90;;;;;;5022529;28;20424;-69
2023/01/18 03:13:39;;;;;;;5.75;2.40;;;-0.50;99.90;;;;;;4999051;28;20452;-70
2023/01/18 03:16:38;;;;;;;3.85;2.40;;;-0.20;99.90;;;;;;4997835;28;20439;-69
2023/01/18 03:22:03;;;;;;;4.45;1.70;;;-0.80;99.90;;;;;;5013849;28;20429;-70
2023/01/18 03:24:30;;;;;;;5.88;2.28;;;-0.50;99.90;;;;;;5006453;28;20447;-70
2023/01/18 03:35:25;;;;;;;5.88;2.30;;;-0.90;99.90;;;;;;5015129;28;20525;-69
2023/01/18 03:37:53;;;;;;;6.28;2.33;;;-0.50;99.90;;;;;;4996236;28;20473;-69
2023/01/18 03:40:26;;;;;;;6.72;2.92;;;-0.60;99.90;;;;;;4996947;28;20492;-68
2023/01/18 03:43:10;;;;;;;6.40;2.33;;;-0.60;99.90;;;;;;5013836;28;20569;-69
2023/01/18 03:45:42;;;;;;;7.78;2.50;;;-1.00;99.90;;;;;;4994665;28;20540;-70
2023/01/18 03:48:09;;;;;;;6.20;2.40;;;-0.70;99.90;;;;;;5028217;28;20565;-70
2023/01/18 03:51:04;;;;;;;6.05;2.90;;;-0.90;99.90;;;;;;4999014;28;20434;-70
2023/01/18 03:53:39;;;;;;;5.68;3.70;;;-0.60;99.90;;;;;;5001268;28;20448;-69
2023/01/18 03:56:15;;;;;;;6.00;2.95;;;-1.10;99.90;;;;;;5000892;28;20466;-69
2023/01/18 03:58:42;;;;;;;5.80;2.88;;;-1.10;99.90;;;;;;5014015;28;20439;-69
2023/01/18 04:01:08;;;;;;;5.33;2.60;;;-1.00;99.90;;;;;;5005348;28;20432;-70
2023/01/18 04:03:34;;;;;;;8.05;3.40;;;-1.10;99.90;;;;;;5001048;28;20487;-70
2023/01/18 04:06:01;;;;;;;8.23;3.40;;;-1.20;99.90;;;;;;5001232;28;20926;-69
2023/01/18 04:08:27;;;;;;;7.30;2.72;;;-1.20;99.90;;;;;;5030027;28;20472;-70
2023/01/18 04:10:53;;;;;;;7.13;2.97;;;-0.90;99.90;;;;;;4999220;28;20775;-69
2023/01/18 04:13:18;;;;;;;5.07;3.13;;;-1.20;99.90;;;;;;5003375;28;20428;-69
2023/01/18 04:15:44;;;;;;;7.15;2.55;;;-1.20;99.90;;;;;;5000770;28;20425;-69
2023/01/18 04:18:10;;;;;;;5.97;2.95;;;-1.20;99.90;;;;;;5000077;28;20499;-69
2023/01/18 04:20:35;;;;;;;6.10;2.40;;;-1.20;99.90;;;;;;5013594;28;20480;-69
2023/01/18 04:23:01;;;;;;;5.33;2.23;;;-0.50;99.90;;;;;;4998455;28;20936;-69
2023/01/18 04:25:27;;;;;;;6.82;2.90;;;-0.90;99.90;;;;;;4998045;28;21039;-69
2023/01/18 04:27:53;;;;;;;6.55;3.00;;;-0.70;99.90;;;;;;5015700;28;20429;-69
2023/01/18 04:30:18;;;;;;;5.70;2.60;;;-0.80;99.90;;;;;;4980108;28;20444;-69
2023/01/18 04:32:45;;;;;;;5.70;2.63;;;-0.70;99.90;;;;;;4998790;28;20425;-69
2023/01/18 04:35:11;;;;;;;10.70;3.28;;;-0.60;99.90;;;;;;4997502;28;20810;-69
2023/01/18 04:37:37;;;;;;;8.65;2.90;;;-0.70;99.90;;;;;;4980288;28;20466;-69
2023/01/18 04:40:05;;;;;;;5.23;3.13;;;-0.50;99.90;;;;;;4999350;28;20886;-69
2023/01/18 04:42:31;;;;;;;6.95;4.00;;;-1.00;99.90;;;;;;4991275;28;21057;-69
2023/01/18 04:44:58;;;;;;;5.80;3.10;;;0.20;99.90;;;;;;5004970;28;20502;-69
2023/01/18 04:47:24;;;;;;;7.13;3.40;;;-1.00;99.90;;;;;;4996985;28;20439;-69
2023/01/18 04:49:50;;;;;;;8.05;3.75;;;-1.20;99.90;;;;;;4999276;28;20460;-69
2023/01/18 04:52:16;;;;;;;6.82;3.60;;;-0.90;99.90;;;;;;4996279;28;20483;-70
2023/01/18 04:54:42;;;;;;;6.72;3.80;;;-0.10;99.90;;;;;;4999270;28;20911;-69
2023/01/18 04:57:08;;;;;;;7.05;3.30;;;-1.00;99.90;;;;;;4996016;28;20511;-69
2023/01/18 04:59:33;;;;;;;6.20;3.38;;;-0.90;99.90;;;;;;5013975;28;20423;-69
2023/01/18 05:01:59;;;;;;;6.18;3.30;;;-0.90;99.90;;;;;;4996648;28;21245;-69
2023/01/18 05:04:24;;;;;;;5.93;3.15;;;-0.70;99.90;;;;;;5005816;28;20795;-67
2023/01/18 05:06:50;;;;;;;7.40;3.63;;;-0.60;99.90;;;;;;5001958;28;20431;-69
2023/01/18 05:09:16;;;;;;;6.20;3.13;;;-0.90;99.90;;;;;;5008864;28;20930;-69
2023/01/18 05:11:42;;;;;;;6.80;4.20;;;-1.20;99.90;;;;;;4996958;28;20424;-70
2023/01/18 05:14:07;;;;;;;7.60;3.60;;;-0.60;99.90;;;;;;5036655;28;20529;-70
2023/01/18 05:16:34;;;;;;;7.45;3.67;;;-0.80;99.90;;;;;;5004185;28;20452;-70
2023/01/18 05:18:59;;;;;;;6.00;3.15;;;-0.60;99.90;;;;;;5005232;28;20432;-70
2023/01/18 05:21:25;;;;;;;8.35;3.80;;;-0.90;99.90;;;;;;5004352;28;20567;-69
2023/01/18 05:23:51;;;;;;;6.55;3.45;;;-1.10;99.90;;;;;;5036052;28;20421;-68
2023/01/18 05:26:20;;;;;;;7.30;4.17;;;-0.80;99.90;;;;;;5034953;28;20840;-68
2023/01/18 05:28:46;;;;;;;8.98;4.90;;;-0.90;99.90;;;;;;5020648;28;20432;-69
2023/01/18 05:31:13;;;;;;;7.97;3.75;;;-0.90;99.90;;;;;;5000283;28;20435;-68
2023/01/18 05:33:39;;;;;;;8.07;4.28;;;-0.60;99.90;;;;;;4998209;28;20420;-68
2023/01/18 05:36:05;;;;;;;7.10;4.35;;;-0.80;99.90;;;;;;5017596;28;20539;-70
2023/01/18 05:38:31;;;;;;;9.05;4.30;;;-1.00;99.90;;;;;;5010635;28;20835;-69
2023/01/18 05:40:57;;;;;;;7.65;3.90;;;-0.60;99.90;;;;;;4994866;28;20460;-69
2023/01/18 05:43:24;;;;;;;9.38;4.50;;;-0.40;99.90;;;;;;4995688;28;20438;-69
2023/01/18 05:45:50;;;;;;;9.68;5.03;;;-0.10;99.90;;;;;;4995465;28;20425;-69
2023/01/18 05:48:16;;;;;;;7.65;4.45;;;-0.50;99.90;;;;;;4996551;28;20586;-69
2023/01/18 05:50:43;;;;;;;9.57;4.65;;;-1.10;99.90;;;;;;4997655;28;20426;-69
2023/01/18 05:53:10;;;;;;;8.38;5.53;;;-1.00;99.90;;;;;;4994499;28;20436;-69
2023/01/18 05:55:35;;;;;;;7.82;5.05;;;-0.80;99.90;;;;;;5030463;28;20420;-69
2023/01/18 05:58:01;;;;;;;9.63;5.30;;;-1.10;99.90;;;;;;5019958;28;20795;-69
2023/01/18 06:00:27;;;;;;;10.70;4.68;;;0.20;99.90;;;;;;4998240;28;20429;-69
2023/01/18 06:02:53;;;;;;;10.32;5.00;;;-1.00;99.90;;;;;;4997238;28;20604;-68
2023/01/18 06:05:20;;;;;;;8.80;5.07;;;0.00;99.90;;;;;;4998430;28;20444;-70
2023/01/18 06:07:49;;;;;;;9.82;5.43;;;-0.90;99.90;;;;;;4997510;28;20432;-69
2023/01/18 06:10:15;;;;;;;9.18;5.25;;;-0.70;99.90;;;;;;5013329;28;20434;-69
2023/01/18 06:12:41;;;;;;;7.85;5.35;;;-0.80;99.90;;;;;;4999333;28;20427;-69
2023/01/18 06:15:08;;;;;;;7.18;4.82;;;-1.20;99.90;;;;;;5001790;28;20424;-70
2023/01/18 06:17:34;;;;;;;9.98;5.22;;;-0.80;99.90;;;;;;4999991;28;20436;-69
2023/01/18 06:20:00;;;;;;;8.63;5.82;;;-1.00;99.90;;;;;;4999951;28;21270;-69
2023/01/18 06:22:26;;;;;;;10.30;6.43;;;-0.10;99.90;;;;;;4998270;28;20560;-69
2023/01/18 06:24:51;;;;;;;11.27;6.80;;;-1.00;99.90;;;;;;5016033;28;20926;-70
2023/01/18 06:27:17;;;;;;;9.50;6.17;;;-1.10;99.90;;;;;;4999799;28;20421;-69
2023/01/18 06:29:43;;;;;;;10.20;5.53;;;-1.00;99.90;;;;;;5002555;28;20923;-70
2023/01/18 06:32:08;;;;;;;8.30;5.93;;;-0.80;99.90;;;;;;5001151;28;21132;-69
2023/01/18 06:34:35;;;;;;;14.13;6.13;;;-1.00;99.90;;;;;;5001901;28;20418;-70
2023/01/18 06:37:01;;;;;;;8.90;5.90;;;-1.00;99.90;;;;;;4997619;28;20476;-69
2023/01/18 06:39:27;;;;;;;8.63;5.53;;;-1.00;99.90;;;;;;5032897;28;20428;-69
2023/01/18 06:41:53;;;;;;;9.48;6.40;;;-0.90;99.90;;;;;;5000218;28;20420;-69
2023/01/18 06:44:19;;;;;;;9.70;6.53;;;-1.00;99.90;;;;;;5001540;28;20531;-69
2023/01/18 06:46:45;;;;;;;11.27;5.75;;;-1.20;99.90;;;;;;4998736;28;20528;-69
2023/01/18 06:49:12;;;;;;;9.35;5.65;;;-1.00;99.90;;;;;;5000191;28;20423;-69
2023/01/18 06:51:39;;;;;;;8.40;5.13;;;-0.80;99.90;;;;;;4998681;28;20912;-70
2023/01/18 06:54:04;;;;;;;9.90;6.70;;;-0.70;99.90;;;;;;5004746;28;20477;-69
2023/01/18 06:56:30;;;;;;;12.63;6.15;;;-0.60;99.90;;;;;;5015300;28;20436;-69
2023/01/18 06:58:57;;;;;;;9.45;6.50;;;-1.20;99.90;;;;;;5031622;28;20428;-70
2023/01/18 07:01:24;;;;;;;10.97;6.67;;;-0.70;99.90;;;;;;5031552;28;20474;-70
2023/01/18 07:03:50;;;;;;;10.68;6.55;;;-1.10;99.90;;;;;;5026520;28;20472;-69
2023/01/18 07:06:16;;;;;;;9.53;5.27;;;-0.80;99.90;;;;;;4991837;28;20548;-68
2023/01/18 07:08:42;;;;;;;10.23;5.53;;;-0.80;99.90;;;;;;5008546;28;20525;-69
2023/01/18 07:11:10;;;;;;;8.90;5.82;;;-1.10;99.90;;;;;;5006648;28;20427;-68
2023/01/18 07:13:39;;;;;;;10.10;6.65;;;-0.10;99.90;;;;;;5021495;28;20420;-68
2023/01/18 07:16:07;;;;;;;9.32;6.35;;;0.00;99.90;;;;;;5006774;28;20433;-70
2023/01/18 07:18:33;;;;;;;9.18;5.72;;;-0.60;99.90;;;;;;5014054;28;20425;-69
2023/01/18 07:21:09;;;;;;;11.52;6.35;;;-0.60;99.90;;;;;;5012441;28;20930;-71
2023/01/18 07:23:38;;;;;;;8.52;5.95;;;-0.80;99.90;;;;;;5004996;28;20432;-70
2023/01/18 07:26:07;;;;;;;12.20;5.97;;;-0.80;99.90;;;;;;5021343;28;20436;-71
2023/01/18 07:28:33;;;;;;;10.68;6.82;;;-1.10;99.90;;;;;;5006892;28;20524;-69
2023/01/18 07:30:59;;;;;;;9.50;5.90;;;-1.00;99.90;;;;;;5004939;28;20429;-69
2023/01/18 07:33:26;;;;;;;9.73;6.07;;;-1.00;99.90;;;;;;5008278;28;20500;-69
2023/01/18 07:35:53;;;;;;;11.57;7.05;;;-1.00;99.90;;;;;;4998962;28;20406;-69
2023/01/18 07:38:19;;;;;;;10.05;5.63;;;-1.00;99.90;;;;;;5000302;28;20434;-69
2023/01/18 07:40:46;;;;;;;9.13;5.85;;;0.10;99.90;;;;;;4998398;28;20869;-69
2023/01/18 07:43:13;;;;;;;10.65;6.55;;;-1.00;99.90;;;;;;5002287;28;20966;-69
2023/01/18 07:45:39;;;;;;;9.43;5.78;;;-0.50;99.90;;;;;;5000290;28;20429;-69
2023/01/18 07:48:05;;;;;;;9.25;6.45;;;-0.60;99.90;;;;;;5012748;28;20487;-70
2023/01/18 07:50:32;;;;;;;10.97;7.40;;;-0.90;99.90;;;;;;4999346;28;20782;-71
2023/01/18 07:53:03;;;;;;;7.28;5.57;;;-0.60;99.90;;;;;;4999110;28;20986;-70
2023/01/18 07:55:31;;;;;;;12.98;7.05;;;-0.50;99.90;;;;;;4998779;28;21130;-69
2023/01/18 07:57:57;;;;;;;10.82;5.93;;;-1.10;99.90;;;;;;4998618;28;20470;-69
2023/01/18 08:00:24;;;;;;;8.32;5.82;;;-0.50;99.90;;;;;;5013713;28;20701;-69
2023/01/18 08:02:50;;;;;;;12.68;6.88;;;-0.50;99.90;;;;;;5013490;28;20428;-70
2023/01/18 08:05:19;;;;;;;10.23;5.75;;;0.20;99.90;;;;;;5000536;28;20459;-68
2023/01/18 08:07:45;;;;;;;16.77;7.73;;;-0.50;99.90;;;;;;5011186;28;21014;-69
2023/01/18 08:10:13;;;;;;;10.30;6.47;;;-0.80;99.90;;;;;;4999082;28;20433;-69
2023/01/18 08:12:40;;;;;;;10.32;6.78;;;-0.90;99.90;;;;;;5029400;28;20822;-69
2023/01/18 08:15:06;;;;;;;10.93;6.55;;;-0.70;99.90;;;;;;5037814;28;20428;-68
2023/01/18 08:17:34;;;;;;;10.07;5.80;;;-0.40;99.90;;;;;;5003251;28;20424;-69
2023/01/18 08:19:59;;;;;;;10.48;6.07;;;-0.40;99.90;;;;;;5005052;28;20776;-69
2023/01/18 08:22:25;;;;;;;12.27;6.73;;;-0.60;99.90;;;;;;5006744;28;20453;-68
2023/01/18 08:24:51;;;;;;;8.90;6.10;;;-0.70;99.90;;;;;;5020397;28;20550;-68
2023/01/18 08:27:17;;;;;;;9.45;6.05;;;-0.40;99.90;;;;;;5005761;28;20432;-67
2023/01/18 08:29:43;;;;;;;11.93;6.43;;;-0.60;99.90;;;;;;4994204;28;20533;-68
2023/01/18 08:32:09;;;;;;;11.10;6.68;;;-0.50;99.90;;;;;;5002793;28;20439;-68
2023/01/18 08:34:36;;;;;;;12.57;6.93;;;-0.70;99.90;;;;;;5000800;28;20412;-68
2023/01/18 08:37:02;;;;;;;8.82;6.00;;;-0.20;99.90;;;;;;4997411;28;20451;-68
2023/01/18 08:39:28;;;;;;;11.10;6.50;;;-0.60;99.90;;;;;;5026638;28;20424;-69
2023/01/18 08:41:53;;;;;;;8.48;6.10;;;-0.10;99.90;;;;;;5012628;28;20986;-68
2023/01/18 08:44:19;;;;;;;9.32;5.63;;;-0.10;99.90;;;;;;4996387;28;20443;-69
2023/01/18 08:46:45;;;;;;;9.20;6.53;;;-0.50;99.90;;;;;;4997339;28;20432;-68
2023/01/18 08:49:11;;;;;;;11.20;5.80;;;-0.40;99.90;;;;;;5033257;28;20417;-67
2023/01/18 08:51:37;;;;;;;12.20;6.87;;;-0.40;99.90;;;;;;5004562;28;20424;-68
2023/01/18 08:54:05;;;;;;;9.60;6.80;;;-0.20;99.90;;;;;;5016051;28;20429;-68
2023/01/18 08:56:31;;;;;;;8.85;5.70;;;0.10;99.90;;;;;;5029709;28;20940;-68
2023/01/18 08:58:57;;;;;;;6.57;5.20;;;0.00;99.90;;;;;;4998806;28;20435;-68
2023/01/18 09:01:23;;;;;;;8.82;5.38;;;-0.20;99.90;;;;;;4996752;28;20443;-69
2023/01/18 09:03:51;;;;;;;10.82;6.13;;;0.20;99.90;;;;;;4998515;28;20913;-68
2023/01/18 09:06:18;;;;;;;9.43;6.20;;;0.10;99.90;;;;;;5036106;28;20502;-67
2023/01/18 09:08:46;;;;;;;11.27;5.90;;;0.00;99.90;;;;;;4997678;28;20438;-69
2023/01/18 09:11:12;;;;;;;7.55;5.60;;;0.40;99.90;;;;;;5004919;28;20413;-68
2023/01/18 09:13:40;;;;;;;7.55;5.07;;;0.10;99.90;;;;;;5003571;28;20484;-70
2023/01/18 09:16:08;;;;;;;10.83;5.30;;;0.10;99.90;;;;;;5006216;28;20427;-71
2023/01/18 09:18:34;;;;;;;10.85;5.20;;;0.60;99.90;;;;;;4995524;28;20518;-68
2023/01/18 09:21:08;;;;;;;10.50;5.20;;;0.30;99.90;;;;;;4984736;28;20429;-68
2023/01/18 09:23:35;;;;;;;8.55;5.15;;;0.40;99.90;;;;;;5006740;28;21019;-68
2023/01/18 09:26:12;;;;;;;9.50;5.18;;;0.70;99.90;;;;;;5006868;28;20444;-70
2023/01/18 09:28:38;;;;;;;11.43;7.00;;;0.50;99.90;;;;;;4996720;28;20810;-68
2023/01/18 09:31:08;;;;;;;8.83;4.97;;;0.50;99.90;;;;;;5021856;28;20412;-69
2023/01/18 09:33:34;;;;;;;7.72;5.32;;;0.90;99.90;;;;;;5004573;28;20812;-71
2023/01/18 09:36:02;;;;;;;10.15;4.93;;;0.60;99.90;;;;;;5000138;28;20424;-69
2023/01/18 09:38:30;;;;;;;9.20;5.15;;;0.70;99.90;;;;;;4996416;28;20474;-69
2023/01/18 09:40:57;;;;;;;6.80;5.03;;;1.10;99.90;;;;;;4999717;28;20626;-69
2023/01/18 09:43:38;;;;;;;7.22;4.53;;;0.90;99.90;;;;;;5004059;28;20428;-69
2023/01/18 09:46:09;;;;;;;9.27;5.75;;;1.70;99.90;;;;;;5002536;28;20480;-69
2023/01/18 09:48:39;;;;;;;9.03;5.17;;;1.20;99.90;;;;;;5009730;28;20476;-68
2023/01/18 09:51:19;;;;;;;7.78;4.38;;;1.00;99.90;;;;;;5007009;28;20473;-68
2023/01/18 09:54:00;;;;;;;6.57;5.03;;;1.10;99.90;;;;;;5004011;28;20978;-68
2023/01/18 09:56:35;;;;;;;10.55;5.72;;;1.20;99.90;;;;;;5008373;28;20464;-69
2023/01/18 09:59:33;;;;;;;8.27;4.40;;;1.30;99.90;;;;;;4987345;28;20778;-68
2023/01/18 10:02:15;;;;;;;9.18;5.20;;;1.20;99.90;;;;;;4984487;28;20748;-68
2023/01/18 10:04:43;;;;;;;7.93;5.57;;;1.60;99.90;;;;;;5041435;28;20416;-69
2023/01/18 10:07:17;;;;;;;8.07;5.53;;;2.70;99.90;;;;;;5008558;28;20569;-68
2023/01/18 10:09:53;;;;;;;8.98;4.63;;;1.80;99.90;;;;;;5009928;28;20466;-70
2023/01/18 10:12:22;;;;;;;7.15;4.85;;;1.70;99.90;;;;;;5008291;28;20502;-69
2023/01/18 10:14:56;;;;;;;9.17;4.83;;;1.90;99.90;;;;;;5010025;28;20466;-69
2023/01/18 10:17:28;;;;;;;6.22;4.20;;;1.70;99.90;;;;;;5009140;28;20982;-69
2023/01/18 10:19:54;;;;;;;8.27;4.55;;;2.40;99.90;;;;;;4991971;28;20477;-69
2023/01/18 10:22:44;;;;;;;8.55;4.78;;;2.60;99.90;;;;;;5039595;28;20443;-69
2023/01/18 10:25:31;;;;;;;8.88;4.28;;;2.20;99.90;;;;;;5009182;28;20452;-70
2023/01/18 10:27:57;;;;;;;11.27;5.32;;;2.20;99.90;;;;;;5008496;28;20777;-69
2023/01/18 10:30:29;;;;;;;7.93;4.60;;;2.20;99.90;;;;;;5041461;28;20597;-69
2023/01/18 10:32:58;;;;;;;7.18;4.07;;;2.30;99.90;;;;;;5009421;28;20409;-69
2023/01/18 10:35:44;;;;;;;6.68;4.30;;;2.20;99.90;;;;;;5008492;28;20513;-69
2023/01/18 10:38:14;;;;;;;9.48;5.30;;;2.40;99.90;;;;;;4988280;28;20406;-68
2023/01/18 10:40:42;;;;;;;10.43;5.40;;;2.90;99.90;;;;;;4989300;28;20488;-69
2023/01/18 10:43:13;;;;;;;12.52;6.15;;;2.50;99.90;;;;;;4988853;28;20742;-69
2023/01/18 10:45:40;;;;;;;10.98;6.10;;;2.50;99.90;;;;;;4990385;28;20418;-70
2023/01/18 10:48:23;;;;;;;11.43;7.38;;;2.60;99.90;;;;;;5014890;28;20437;-70
2023/01/18 10:50:52;;;;;;;10.05;5.72;;;2.60;99.90;;;;;;5000284;28;20540;-70
2023/01/18 10:53:38;;;;;;;9.98;5.80;;;2.60;99.90;;;;;;5007824;28;20425;-70
2023/01/18 10:56:13;;;;;;;10.05;5.68;;;2.70;99.90;;;;;;5009531;28;20823;-71
2023/01/18 10:58:50;;;;;;;9.05;5.47;;;2.70;99.90;;;;;;5000655;28;20432;-71
2023/01/18 11:01:26;;;;;;;10.60;5.15;;;2.90;99.90;;;;;;4998532;28;20581;-69
2023/01/18 11:03:55;;;;;;;10.05;5.07;;;2.70;99.90;;;;;;5000767;28;20525;-69
2023/01/18 11:06:23;;;;;;;11.48;5.95;;;2.70;99.90;;;;;;5007505;28;20418;-70
2023/01/18 11:08:49;;;;;;;10.40;5.23;;;2.90;99.90;;;;;;5006414;28;20478;-70
2023/01/18 11:11:17;;;;;;;9.48;5.32;;;2.80;99.90;;;;;;5007251;28;20421;-70
2023/01/18 11:13:47;;;;;;;9.32;4.60;;;3.00;99.90;;;;;;5007870;28;20495;-69
2023/01/18 11:16:16;;;;;;;9.97;4.73;;;3.00;99.90;;;;;;5008409;28;20431;-68
2023/01/18 11:19:01;;;;;;;8.25;4.55;;;2.90;99.90;;;;;;5017181;28;20425;-68
2023/01/18 11:21:49;;;;;;;7.93;4.17;;;3.00;99.90;;;;;;5039090;28;20788;-68
2023/01/18 11:24:30;;;;;;;9.63;5.73;;;2.80;99.90;;;;;;5024740;28;20935;-69
2023/01/18 11:27:04;;;;;;;7.25;4.15;;;2.90;99.90;;;;;;5025595;28;20441;-69
2023/01/18 11:29:50;;;;;;;7.13;4.00;;;3.00;99.90;;;;;;5008858;28;20429;-70
2023/01/18 11:32:23;;;;;;;7.55;3.70;;;2.90;99.90;;;;;;5007861;28;20440;-71
2023/01/18 11:34:52;;;;;;;6.30;4.03;;;3.00;99.90;;;;;;5008153;28;20543;-69
2023/01/18 11:37:42;;;;;;;8.93;4.15;;;3.10;99.90;;;;;;5007948;28;20478;-70
2023/01/18 11:40:28;;;;;;;10.75;4.50;;;3.20;99.90;;;;;;5007328;28;20432;-70
2023/01/18 11:43:19;;;;;;;12.70;4.97;;;3.30;99.90;;;;;;5008523;28;20409;-71
2023/01/18 11:45:47;;;;;;;8.65;4.95;;;3.30;99.90;;;;;;5014613;28;20859;-71
2023/01/18 11:48:26;;;;;;;9.15;4.78;;;3.30;99.90;;;;;;5007189;28;20455;-71
2023/01/18 11:51:21;;;;;;;9.77;4.57;;;3.40;99.90;;;;;;5038928;28;20417;-72
2023/01/18 11:53:56;;;;;;;11.35;6.15;;;3.60;99.90;;;;;;5001199;28;20913;-71
2023/01/18 11:56:39;;;;;;;6.97;4.25;;;3.40;99.90;;;;;;5036628;28;20424;-71
2023/01/18 11:59:32;;;;;;;8.32;4.93;;;3.60;99.90;;;;;;5004984;28;20425;-69
2023/01/18 12:02:17;;;;;;;10.35;4.93;;;3.70;99.90;;;;;;5037543;28;20575;-71
2023/01/18 12:04:48;;;;;;;9.32;5.35;;;3.60;99.90;;;;;;4988347;28;20466;-71
2023/01/18 12:07:30;;;;;;;9.98;4.95;;;3.60;99.90;;;;;;5035192;28;20436;-71
2023/01/18 12:10:00;;;;;;;8.30;4.13;;;3.60;99.90;;;;;;5008653;28;20462;-73
2023/01/18 12:12:26;;;;;;;10.68;4.95;;;3.70;99.90;;;;;;5007253;28;20416;-72
2023/01/18 12:15:12;;;;;;;8.53;3.67;;;3.70;99.90;;;;;;5011077;28;20432;-71
2023/01/18 12:17:41;;;;;;;8.00;3.90;;;6.20;99.90;;;;;;4984188;28;20441;-71
2023/01/18 12:20:18;;;;;;;8.68;4.55;;;3.90;99.90;;;;;;5005481;28;20420;-69
2023/01/18 12:22:56;;;;;;;8.48;4.05;;;3.80;99.90;;;;;;4999099;28;20428;-69
2023/01/18 12:25:45;;;;;;;9.48;4.78;;;3.80;99.90;;;;;;5005363;28;20432;-71
2023/01/18 12:28:36;;;;;;;7.50;4.22;;;3.90;99.90;;;;;;5005521;28;20436;-71
2023/01/18 12:31:38;;;;;;;7.43;3.72;;;4.00;99.90;;;;;;5007372;28;20404;-70
2023/01/18 12:34:13;;;;;;;7.82;3.85;;;4.60;99.90;;;;;;5007387;28;20409;-71
2023/01/18 12:37:01;;;;;;;9.15;3.92;;;4.20;99.90;;;;;;5006975;28;20947;-72
2023/01/18 12:39:47;;;;;;;7.20;3.87;;;4.30;99.90;;;;;;5025661;28;20441;-71
2023/01/18 12:42:45;;;;;;;8.32;4.03;;;4.40;99.90;;;;;;5024856;28;20446;-71
2023/01/18 12:45:16;;;;;;;10.25;4.18;;;4.40;99.90;;;;;;4997085;28;20415;-71
2023/01/18 12:47:52;;;;;;;6.93;3.78;;;4.20;99.90;;;;;;5005535;28;20582;-71
2023/01/18 12:50:33;;;;;;;8.75;4.32;;;4.50;99.90;;;;;;5004026;28;21290;-71
2023/01/18 12:53:21;;;;;;;9.63;4.43;;;3.90;99.90;;;;;;4989142;28;20442;-72
2023/01/18 12:55:52;;;;;;;12.73;4.57;;;3.90;99.90;;;;;;4993946;28;20426;-70
2023/01/18 12:58:25;;;;;;;7.90;4.53;;;3.90;99.90;;;;;;4995895;28;20899;-70
2023/01/18 13:00:57;;;;;;;5.95;3.70;;;3.90;99.90;;;;;;4988837;28;20925;-71
2023/01/18 13:03:28;;;;;;;7.90;3.78;;;4.40;99.90;;;;;;5034739;28;20433;-70
2023/01/18 13:06:02;;;;;;;8.30;4.22;;;3.80;99.90;;;;;;5026474;28;20428;-71
2023/01/18 13:08:35;;;;;;;7.70;3.63;;;3.80;99.90;;;;;;5004738;28;20503;-71
2023/01/18 13:11:13;;;;;;;8.07;3.67;;;3.90;99.90;;;;;;5006892;28;20801;-70
2023/01/18 13:13:41;;;;;;;7.13;3.50;;;3.90;99.90;;;;;;5006216;28;20519;-70
2023/01/18 13:16:12;;;;;;;7.57;3.40;;;3.80;99.90;;;;;;5006231;28;20978;-70
2023/01/18 13:18:42;;;;;;;5.63;3.35;;;3.80;99.90;;;;;;4997061;28;20433;-70
2023/01/18 13:21:18;;;;;;;7.80;3.63;;;3.90;99.90;;;;;;5004340;28;20482;-71
2023/01/18 13:23:59;;;;;;;5.72;3.28;;;3.90;99.90;;;;;;5038110;28;20417;-71
2023/01/18 13:26:27;;;;;;;8.43;3.58;;;3.80;99.90;;;;;;5006506;28;20436;-69
2023/01/18 13:29:18;;;;;;;5.97;3.20;;;3.80;99.90;;;;;;5037555;28;20556;-71
2023/01/18 13:31:45;;;;;;;5.10;2.83;;;3.70;99.90;;;;;;4986196;28;20792;-71
2023/01/18 13:34:30;;;;;;;6.47;2.78;;;3.80;99.90;;;;;;5021859;28;20436;-70
2023/01/18 13:36:57;;;;;;;5.03;2.80;;;3.70;99.90;;;;;;5018529;28;20895;-71
2023/01/18 13:39:25;;;;;;;7.72;3.33;;;3.80;99.90;;;;;;5005825;28;20412;-70
2023/01/18 13:42:03;;;;;;;7.85;3.50;;;3.90;99.90;;;;;;5004173;28;20420;-71
2023/01/18 13:44:41;;;;;;;6.47;3.67;;;3.70;99.90;;;;;;5003680;28;20487;-70
2023/01/18 13:47:38;;;;;;;11.87;3.67;;;3.80;99.90;;;;;;5020220;28;20920;-69